createdAt,value
2023-05-10T00:01:34.415Z,71.46
2023-05-10T00:04:03.095Z,71.44
2023-05-10T00:06:33.669Z,71.59
2023-05-10T00:09:02.300Z,72.55
2023-05-10T00:11:31.000Z,72.89
2023-05-10T00:13:59.627Z,73.47
2023-05-10T00:16:28.635Z,74.06
2023-05-10T00:18:57.384Z,74.07
2023-05-10T00:21:25.852Z,74.26
2023-05-10T00:23:56.226Z,75.26
2023-05-10T00:26:24.599Z,75.43
2023-05-10T00:28:56.709Z,75.32
2023-05-10T00:31:25.678Z,75.90
2023-05-10T00:33:54.315Z,76.29
2023-05-10T00:36:23.107Z,76.45
2023-05-10T00:38:51.614Z,76.64
2023-05-10T00:41:22.237Z,76.67
2023-05-10T00:43:51.285Z,77.05
2023-05-10T00:46:20.934Z,76.64
2023-05-10T00:48:50.346Z,77.02
2023-05-10T00:51:19.068Z,77.13
2023-05-10T00:53:48.555Z,77.06
2023-05-10T00:56:17.767Z,77.58
2023-05-10T00:58:48.529Z,78.03
2023-05-10T01:01:17.588Z,78.16
2023-05-10T01:03:48.071Z,78.02
2023-05-10T01:06:18.493Z,78.49
2023-05-10T01:08:47.702Z,78.48
2023-05-10T01:11:16.922Z,78.81
2023-05-10T01:13:57.568Z,79.10
2023-05-10T01:16:27.272Z,79.03
2023-05-10T01:18:55.952Z,79.61
2023-05-10T01:21:35.367Z,79.86
2023-05-10T01:24:40.636Z,81.68
2023-05-10T01:27:22.395Z,80.67
2023-05-10T01:30:22.631Z,81.90
2023-05-10T01:32:58.291Z,81.31
2023-05-10T01:35:34.824Z,81.33
2023-05-10T01:38:10.355Z,81.52
2023-05-10T01:40:46.666Z,81.89
2023-05-10T01:43:25.266Z,82.59
2023-05-10T01:46:05.738Z,83.03
2023-05-10T01:48:39.394Z,82.93
2023-05-10T01:51:09.252Z,83.25
2023-05-10T01:53:41.334Z,83.30
2023-05-10T01:56:11.969Z,83.15
2023-05-10T01:58:46.747Z,83.22
2023-05-10T02:01:17.518Z,83.46
2023-05-10T02:03:49.471Z,83.27
2023-05-10T02:06:20.871Z,82.91
2023-05-10T02:08:54.319Z,83.37
2023-05-10T02:11:25.553Z,83.40
2023-05-10T02:13:55.738Z,83.28
2023-05-10T02:16:32.067Z,83.47
2023-05-10T02:19:04.501Z,83.13
2023-05-10T02:21:35.070Z,83.49
2023-05-10T02:24:06.465Z,83.82
2023-05-10T02:26:36.346Z,86.80
2023-05-10T02:29:07.855Z,84.47
2023-05-10T02:31:39.923Z,83.98
2023-05-10T02:34:11.400Z,84.11
2023-05-10T02:36:40.838Z,88.23
2023-05-10T02:39:13.845Z,84.54
2023-05-10T02:41:44.500Z,84.67
2023-05-10T02:44:14.703Z,84.76
2023-05-10T02:46:43.667Z,85.51
2023-05-10T02:49:13.813Z,86.01
2023-05-10T02:51:58.862Z,86.53
2023-05-10T02:54:35.534Z,86.03
2023-05-10T02:57:07.041Z,86.25
2023-05-10T02:59:36.175Z,86.20
2023-05-10T03:02:06.319Z,85.89
2023-05-10T03:04:36.454Z,85.79
2023-05-10T03:07:05.195Z,85.63
2023-05-10T03:09:34.134Z,86.00
2023-05-10T03:12:14.176Z,86.05
2023-05-10T03:14:51.609Z,86.27
2023-05-10T03:17:26.216Z,86.62
2023-05-10T03:19:58.828Z,86.63
2023-05-10T03:22:33.660Z,87.05
2023-05-10T03:25:06.724Z,87.43
2023-05-10T03:27:39.035Z,87.48
2023-05-10T03:30:10.263Z,87.51
2023-05-10T03:32:39.000Z,87.58
2023-05-10T03:35:10.772Z,87.41
2023-05-10T03:37:40.173Z,86.87
2023-05-10T03:40:09.977Z,86.97
2023-05-10T03:42:40.929Z,86.66
2023-05-10T03:45:11.123Z,86.22
2023-05-10T03:47:39.976Z,85.85
2023-05-10T03:50:11.408Z,85.36
2023-05-10T03:52:40.302Z,85.21
2023-05-10T03:55:09.653Z,84.78
2023-05-10T03:57:38.440Z,84.60
2023-05-10T04:00:09.489Z,84.42
2023-05-10T04:02:44.749Z,83.62
2023-05-10T04:05:21.498Z,83.00
2023-05-10T04:07:50.939Z,82.68
2023-05-10T04:10:20.049Z,82.26
2023-05-10T04:12:51.191Z,82.22
2023-05-10T04:15:20.332Z,81.68
2023-05-10T04:17:49.808Z,81.24
2023-05-10T04:20:20.625Z,80.42
2023-05-10T04:22:49.156Z,80.64
2023-05-10T04:25:18.133Z,80.50
2023-05-10T04:27:47.531Z,79.99
2023-05-10T04:30:17.892Z,79.63
2023-05-10T04:32:46.978Z,79.33
2023-05-10T04:35:16.172Z,79.57
2023-05-10T04:37:46.047Z,79.39
2023-05-10T04:40:15.258Z,79.29
2023-05-10T04:42:44.297Z,78.73
2023-05-10T04:45:13.071Z,78.28
2023-05-10T04:47:41.701Z,78.49
2023-05-10T04:50:10.711Z,77.77
2023-05-10T04:52:39.760Z,77.07
2023-05-10T04:55:11.145Z,76.93
2023-05-10T04:57:39.699Z,76.31
2023-05-10T05:00:09.629Z,75.74
2023-05-10T05:02:38.263Z,74.56
2023-05-10T05:05:11.322Z,74.55
2023-05-10T05:07:40.651Z,73.48
2023-05-10T05:10:11.345Z,73.57
2023-05-10T05:12:40.154Z,73.21
2023-05-10T05:15:10.813Z,73.06
2023-05-10T05:17:39.619Z,72.60
2023-05-10T05:20:11.227Z,71.71
2023-05-10T05:22:40.370Z,71.25
2023-05-10T05:25:13.783Z,71.10
2023-05-10T05:27:42.400Z,70.50
2023-05-10T05:30:12.289Z,70.21
2023-05-10T05:32:41.342Z,69.65
2023-05-10T05:35:10.702Z,69.40
2023-05-10T05:37:39.335Z,68.47
2023-05-10T05:40:14.573Z,68.39
2023-05-10T05:42:43.710Z,67.20
2023-05-10T05:45:14.772Z,66.13
2023-05-10T05:47:43.929Z,65.83
2023-05-10T05:50:13.259Z,65.16
2023-05-10T05:52:41.698Z,64.21
2023-05-10T05:55:12.937Z,63.55
2023-05-10T05:57:41.883Z,61.83
2023-05-10T06:00:11.567Z,61.37
2023-05-10T06:02:44.125Z,60.28
2023-05-10T06:05:15.672Z,59.63
2023-05-10T06:07:44.655Z,58.65
2023-05-10T06:10:14.812Z,57.96
2023-05-10T06:12:44.251Z,57.51
2023-05-10T06:15:13.813Z,56.73
2023-05-10T06:17:45.476Z,56.01
2023-05-10T06:20:15.506Z,55.58
2023-05-10T06:22:45.940Z,55.21
2023-05-10T06:25:19.293Z,54.20
2023-05-10T06:27:51.736Z,54.32
2023-05-10T06:30:24.326Z,53.60
2023-05-10T06:32:53.146Z,53.56
2023-05-10T06:35:22.389Z,52.86
2023-05-10T06:37:52.080Z,52.94
2023-05-10T06:40:22.507Z,51.89
2023-05-10T06:42:52.789Z,47.09
2023-05-10T06:45:22.450Z,51.24
2023-05-10T06:47:51.426Z,50.38
2023-05-10T06:50:20.937Z,50.34
2023-05-10T06:52:51.109Z,49.59
2023-05-10T06:55:22.711Z,48.77
2023-05-10T06:57:52.035Z,49.19
2023-05-10T07:00:22.096Z,49.43
2023-05-10T07:02:50.866Z,48.63
2023-05-10T07:05:21.377Z,48.15
2023-05-10T07:07:50.573Z,47.30
2023-05-10T07:10:19.547Z,47.67
2023-05-10T07:12:50.041Z,47.10
2023-05-10T07:15:20.444Z,46.27
2023-05-10T07:17:49.333Z,46.14
2023-05-10T07:20:18.521Z,45.64
2023-05-10T07:22:47.335Z,45.15
2023-05-10T07:25:16.330Z,45.33
2023-05-10T07:27:46.176Z,44.54
2023-05-10T07:30:17.620Z,44.29
2023-05-10T07:32:46.681Z,44.01
2023-05-10T07:35:15.915Z,43.94
2023-05-10T07:37:45.112Z,43.70
2023-05-10T07:40:14.318Z,42.91
2023-05-10T07:42:43.254Z,42.79
2023-05-10T07:45:12.568Z,42.19
2023-05-10T07:47:42.868Z,41.69
2023-05-10T07:50:12.593Z,42.50
2023-05-10T07:52:41.648Z,42.32
2023-05-10T07:55:14.004Z,41.10
2023-05-10T07:57:42.957Z,41.26
2023-05-10T08:00:16.532Z,40.80
2023-05-10T08:02:47.209Z,41.66
2023-05-10T08:05:16.917Z,40.91
2023-05-10T08:07:46.312Z,40.64
2023-05-10T08:10:15.199Z,40.93
2023-05-10T08:12:44.139Z,40.50
2023-05-10T08:15:13.997Z,41.04
2023-05-10T08:17:42.812Z,40.67
2023-05-10T08:20:14.019Z,39.75
2023-05-10T08:22:43.219Z,39.56
2023-05-10T08:25:12.443Z,38.95
2023-05-10T08:27:41.477Z,39.01
2023-05-10T08:30:11.579Z,39.27
2023-05-10T08:32:40.970Z,39.25
2023-05-10T08:35:10.222Z,38.25
2023-05-10T08:37:40.544Z,38.19
2023-05-10T08:40:13.733Z,38.13
2023-05-10T08:42:51.188Z,36.80
2023-05-10T08:45:22.520Z,37.76
2023-05-10T08:47:57.979Z,37.24
2023-05-10T08:50:28.120Z,37.48
2023-05-10T08:53:01.556Z,36.65
2023-05-10T08:55:30.508Z,36.87
2023-05-10T08:57:59.272Z,37.01
2023-05-10T09:00:28.485Z,36.87
2023-05-10T09:02:57.623Z,36.56
2023-05-10T09:05:26.265Z,36.91
2023-05-10T09:07:55.598Z,36.32
2023-05-10T09:10:28.429Z,36.19
2023-05-10T09:12:59.605Z,35.34
2023-05-10T09:15:28.478Z,36.24
2023-05-10T09:17:58.255Z,36.30
2023-05-10T09:20:26.744Z,36.07
2023-05-10T09:22:55.671Z,34.79
2023-05-10T09:25:25.934Z,35.17
2023-05-10T09:27:55.305Z,35.11
2023-05-10T09:30:28.855Z,34.91
2023-05-10T09:33:00.152Z,35.03
2023-05-10T09:35:30.278Z,34.23
2023-05-10T09:38:01.796Z,34.56
2023-05-10T09:40:32.952Z,34.84
2023-05-10T09:43:04.184Z,34.74
2023-05-10T09:45:35.599Z,34.27
2023-05-10T09:48:07.762Z,34.23
2023-05-10T09:50:36.796Z,33.99
2023-05-10T09:53:06.161Z,33.35
2023-05-10T09:55:45.803Z,33.16
2023-05-10T09:58:16.071Z,33.98
2023-05-10T10:00:48.986Z,33.70
2023-05-10T10:03:19.345Z,33.42
2023-05-10T10:05:49.351Z,33.74
2023-05-10T10:08:18.563Z,33.50
2023-05-10T10:10:51.543Z,32.96
2023-05-10T10:13:20.697Z,33.35
2023-05-10T10:15:52.390Z,33.77
2023-05-10T10:18:28.090Z,33.67
2023-05-10T10:20:59.776Z,33.33
2023-05-10T10:23:29.810Z,33.47
2023-05-10T10:26:01.461Z,32.53
2023-05-10T10:28:50.764Z,32.25
2023-05-10T10:31:28.965Z,31.54
2023-05-10T10:34:03.781Z,32.08
2023-05-10T10:36:34.982Z,32.32
2023-05-10T10:39:05.443Z,32.52
2023-05-10T10:41:37.348Z,32.41
2023-05-10T10:44:25.753Z,31.03
2023-05-10T10:47:02.673Z,31.90
2023-05-10T10:49:35.179Z,33.06
2023-05-10T10:52:19.778Z,29.29
2023-05-10T10:55:00.063Z,31.61
2023-05-10T10:57:33.591Z,31.47
2023-05-10T11:00:26.739Z,31.50
2023-05-10T11:02:58.351Z,32.49
2023-05-10T11:05:43.110Z,30.47
2023-05-10T11:08:33.426Z,32.31
2023-05-10T11:11:11.447Z,30.39
2023-05-10T11:13:47.856Z,31.85
2023-05-10T11:16:21.331Z,31.99
2023-05-10T11:19:00.624Z,31.13
2023-05-10T11:21:29.462Z,31.70
2023-05-10T11:23:59.966Z,32.17
2023-05-10T11:26:33.427Z,32.00
2023-05-10T11:29:05.696Z,31.48
2023-05-10T11:31:34.852Z,30.92
2023-05-10T11:34:04.008Z,31.09
2023-05-10T11:36:38.761Z,29.99
2023-05-10T11:39:08.119Z,31.05
2023-05-10T11:41:37.551Z,30.92
2023-05-10T11:44:08.015Z,31.10
2023-05-10T11:46:40.035Z,31.30
2023-05-10T11:49:10.247Z,31.32
2023-05-10T11:51:40.538Z,31.03
2023-05-10T11:54:11.178Z,30.96
2023-05-10T11:56:40.805Z,31.00
2023-05-10T11:59:10.849Z,31.39
2023-05-10T12:01:40.127Z,30.72
2023-05-10T12:04:09.362Z,30.70
2023-05-10T12:06:42.888Z,30.04
2023-05-10T12:09:11.758Z,29.85
2023-05-10T12:11:44.352Z,29.69
2023-05-10T12:14:16.570Z,30.06
2023-05-10T12:16:47.687Z,29.99
2023-05-10T12:19:22.459Z,30.01
2023-05-10T12:21:51.840Z,30.96
2023-05-10T12:24:22.827Z,31.21
2023-05-10T12:26:53.292Z,30.32
2023-05-10T12:29:23.964Z,30.75
2023-05-10T12:31:57.646Z,29.29
2023-05-10T12:34:32.622Z,30.07
2023-05-10T12:37:01.976Z,30.16
2023-05-10T12:39:41.491Z,28.94
2023-05-10T12:42:10.568Z,30.15
2023-05-10T12:44:41.323Z,31.00
2023-05-10T12:47:10.179Z,30.76
2023-05-10T12:49:38.887Z,31.18
2023-05-10T12:52:07.792Z,30.01
2023-05-10T12:54:37.701Z,30.15
2023-05-10T12:57:06.682Z,30.51
2023-05-10T12:59:37.432Z,29.95
2023-05-10T13:02:09.882Z,30.33
2023-05-10T13:04:41.044Z,30.68
2023-05-10T13:07:10.261Z,30.92
2023-05-10T13:09:39.254Z,30.32
2023-05-10T13:12:10.008Z,30.61
2023-05-10T13:14:39.172Z,30.46
2023-05-10T13:17:10.562Z,30.17
2023-05-10T13:19:39.531Z,30.69
2023-05-10T13:22:08.658Z,30.58
2023-05-10T13:24:37.817Z,30.12
2023-05-10T13:27:07.080Z,30.46
2023-05-10T13:29:35.842Z,30.65
2023-05-10T13:32:05.016Z,30.80
2023-05-10T13:34:36.771Z,30.67
2023-05-10T13:37:05.704Z,31.08
2023-05-10T13:39:35.609Z,30.82
2023-05-10T13:42:04.346Z,30.68
2023-05-10T13:44:35.045Z,30.82
2023-05-10T13:47:04.224Z,30.93
2023-05-10T13:49:37.325Z,30.50
2023-05-10T13:52:07.995Z,31.46
2023-05-10T13:54:37.181Z,30.88
2023-05-10T13:57:07.997Z,30.64
2023-05-10T13:59:37.762Z,31.07
2023-05-10T14:02:07.240Z,30.88
2023-05-10T14:04:38.951Z,30.51
2023-05-10T14:07:08.376Z,31.06
2023-05-10T14:09:38.403Z,31.64
2023-05-10T14:12:07.916Z,31.50
2023-05-10T14:14:37.022Z,31.50
2023-05-10T14:17:06.648Z,31.63
2023-05-10T14:19:35.987Z,31.84
2023-05-10T14:22:06.708Z,31.62
2023-05-10T14:24:36.001Z,32.06
2023-05-10T14:27:05.068Z,32.34
2023-05-10T14:29:34.142Z,32.31
2023-05-10T14:32:04.000Z,32.49
2023-05-10T14:34:33.564Z,32.65
2023-05-10T14:37:02.644Z,32.37
2023-05-10T14:39:34.246Z,32.17
2023-05-10T14:42:03.828Z,32.38
2023-05-10T14:44:32.982Z,32.20
2023-05-10T14:47:02.892Z,33.03
2023-05-10T14:49:32.080Z,32.92
2023-05-10T14:54:48.235Z,32.90
2023-05-10T14:57:18.527Z,33.24
2023-05-10T14:59:47.944Z,33.01
2023-05-10T15:02:17.871Z,33.09
2023-05-10T15:04:47.970Z,32.71
2023-05-10T15:07:19.974Z,32.80
2023-05-10T15:09:51.679Z,32.82
2023-05-10T15:12:22.860Z,32.72
2023-05-10T15:14:52.139Z,32.56
2023-05-10T15:17:21.266Z,32.77
2023-05-10T15:19:50.529Z,32.91
2023-05-10T15:22:20.323Z,33.07
2023-05-10T15:24:50.989Z,33.16
2023-05-10T15:27:19.941Z,33.59
2023-05-10T15:29:49.250Z,33.48
2023-05-10T15:32:18.094Z,33.35
2023-05-10T15:34:47.318Z,33.22
2023-05-10T15:37:16.336Z,33.77
2023-05-10T15:39:46.778Z,33.81
2023-05-10T15:42:17.025Z,34.22
2023-05-10T15:44:51.372Z,34.14
2023-05-10T15:47:20.460Z,34.10
2023-05-10T15:49:49.584Z,34.43
2023-05-10T15:52:19.526Z,34.21
2023-05-10T15:54:48.643Z,34.35
2023-05-10T15:57:19.414Z,34.42
2023-05-10T15:59:48.503Z,34.80
2023-05-10T16:02:19.602Z,34.92
2023-05-10T16:04:48.875Z,34.68
2023-05-10T16:07:18.695Z,34.98
2023-05-10T16:09:49.661Z,34.99
2023-05-10T16:12:20.113Z,35.35
2023-05-10T16:14:49.444Z,35.69
2023-05-10T16:17:20.759Z,35.41
2023-05-10T16:19:49.781Z,35.14
2023-05-10T16:22:19.103Z,35.20
2023-05-10T16:24:49.006Z,35.67
2023-05-10T16:27:18.872Z,35.68
2023-05-10T16:29:50.281Z,35.09
2023-05-10T16:32:19.165Z,35.87
2023-05-10T16:34:48.447Z,36.03
2023-05-10T16:37:17.549Z,36.14
2023-05-10T16:39:47.079Z,36.06
2023-05-10T16:42:16.260Z,36.45
2023-05-10T16:44:45.858Z,36.53
2023-05-10T16:47:16.401Z,36.89
2023-05-10T16:49:47.110Z,36.75
2023-05-10T16:52:16.218Z,37.47
2023-05-10T16:54:45.972Z,37.17
2023-05-10T16:57:15.075Z,37.35
2023-05-10T16:59:44.243Z,37.01
2023-05-10T17:02:13.968Z,37.25
2023-05-10T17:04:44.728Z,37.30
2023-05-10T17:07:13.879Z,37.19
2023-05-10T17:09:45.503Z,37.79
2023-05-10T17:12:14.822Z,37.36
2023-05-10T17:14:45.011Z,37.23
2023-05-10T17:17:14.367Z,37.40
2023-05-10T17:19:46.794Z,37.30
2023-05-10T17:22:15.962Z,37.05
2023-05-10T17:24:45.268Z,37.00
2023-05-10T17:27:15.820Z,37.02
2023-05-10T17:29:45.085Z,37.15
2023-05-10T17:32:15.990Z,37.46
2023-05-10T17:34:47.163Z,37.50
2023-05-10T17:37:16.135Z,37.77
2023-05-10T17:39:45.418Z,37.55
2023-05-10T17:42:17.739Z,37.90
2023-05-10T17:44:47.064Z,37.83
2023-05-10T17:47:16.193Z,38.29
2023-05-10T17:49:47.129Z,37.93
2023-05-10T17:52:16.042Z,38.32
2023-05-10T17:54:45.223Z,38.60
2023-05-10T17:57:14.586Z,38.40
2023-05-10T17:59:44.231Z,38.82
2023-05-10T18:02:13.322Z,38.94
2023-05-10T18:04:42.797Z,39.10
2023-05-10T18:07:13.129Z,39.34
2023-05-10T18:09:43.454Z,39.57
2023-05-10T18:12:12.620Z,39.99
2023-05-10T18:14:42.371Z,40.07
2023-05-10T18:17:11.683Z,40.13
2023-05-10T18:19:41.238Z,40.59
2023-05-10T18:22:10.974Z,40.76
2023-05-10T18:24:41.464Z,41.03
2023-05-10T18:27:10.562Z,41.36
2023-05-10T18:29:39.648Z,41.73
2023-05-10T18:32:08.816Z,41.84
2023-05-10T18:34:38.220Z,42.15
2023-05-10T18:37:08.010Z,42.11
2023-05-10T18:39:38.138Z,42.36
2023-05-10T18:42:09.844Z,42.56
2023-05-10T18:44:39.159Z,42.76
2023-05-10T18:47:08.491Z,43.03
2023-05-10T18:49:37.383Z,42.97
2023-05-10T18:52:06.601Z,43.23
2023-05-10T18:54:35.617Z,43.20
2023-05-10T18:57:05.114Z,43.59
2023-05-10T18:59:35.610Z,44.03
2023-05-10T19:02:07.772Z,44.22
2023-05-10T19:04:37.393Z,44.38
2023-05-10T19:07:06.669Z,44.24
2023-05-10T19:09:35.792Z,44.63
2023-05-10T19:12:05.342Z,44.47
2023-05-10T19:14:36.407Z,44.23
2023-05-10T19:17:08.926Z,44.50
2023-05-10T19:19:38.996Z,44.60
2023-05-10T19:22:07.942Z,44.52
2023-05-10T19:24:37.593Z,44.25
2023-05-10T19:27:07.507Z,44.45
2023-05-10T19:29:38.294Z,44.44
2023-05-10T19:32:22.496Z,44.93
2023-05-10T19:34:53.340Z,44.39
2023-05-10T19:37:23.910Z,44.30
2023-05-10T19:39:54.364Z,45.40
2023-05-10T19:42:27.882Z,44.94
2023-05-10T19:44:58.613Z,44.26
2023-05-10T19:47:27.743Z,44.97
2023-05-10T19:49:56.548Z,44.69
2023-05-10T19:52:25.522Z,44.87
2023-05-10T19:54:54.664Z,44.94
2023-05-10T19:57:23.757Z,44.86
2023-05-10T19:59:52.587Z,44.97
2023-05-10T20:02:23.632Z,45.46
2023-05-10T20:04:52.396Z,45.36
2023-05-10T20:07:21.573Z,45.36
2023-05-10T20:09:50.297Z,45.24
2023-05-10T20:12:19.618Z,45.17
2023-05-10T20:14:50.846Z,45.48
2023-05-10T20:17:24.197Z,45.60
2023-05-10T20:19:53.285Z,45.93
2023-05-10T20:22:22.857Z,45.47
2023-05-10T20:24:53.186Z,45.96
2023-05-10T20:27:23.769Z,46.15
2023-05-10T20:29:53.427Z,45.77
2023-05-10T20:32:26.513Z,46.45
2023-05-10T20:34:56.166Z,46.20
2023-05-10T20:37:25.700Z,45.78
2023-05-10T20:39:54.558Z,46.07
2023-05-10T20:42:23.895Z,46.24
2023-05-10T20:44:52.934Z,45.94
2023-05-10T20:47:27.027Z,45.90
2023-05-10T20:49:58.457Z,46.72
2023-05-10T20:52:27.251Z,46.05
2023-05-10T20:54:56.019Z,46.61
2023-05-10T20:57:24.969Z,46.48
2023-05-10T20:59:54.744Z,46.47
2023-05-10T21:02:26.238Z,46.40
2023-05-10T21:04:57.968Z,46.05
2023-05-10T21:07:29.013Z,46.29
2023-05-10T21:09:58.688Z,46.33
2023-05-10T21:12:27.828Z,46.40
2023-05-10T21:14:57.068Z,46.63
2023-05-10T21:17:27.759Z,46.17
2023-05-10T21:19:56.594Z,46.13
2023-05-10T21:22:25.510Z,46.68
2023-05-10T21:24:58.648Z,46.21
2023-05-10T21:27:27.490Z,46.66
2023-05-10T21:29:57.084Z,46.33
2023-05-10T21:32:26.888Z,46.80
2023-05-10T21:34:56.379Z,46.43
2023-05-10T21:37:27.240Z,47.00
2023-05-10T21:39:57.694Z,46.99
2023-05-10T21:42:27.626Z,47.34
2023-05-10T21:44:57.112Z,47.33
2023-05-10T21:47:26.622Z,47.54
2023-05-10T21:49:56.329Z,47.94
2023-05-10T21:52:25.315Z,48.13
2023-05-10T21:54:54.148Z,47.74
2023-05-10T21:57:25.492Z,47.76
2023-05-10T21:59:54.734Z,47.53
2023-05-10T22:02:23.884Z,48.23
2023-05-10T22:04:52.775Z,48.14
2023-05-10T22:07:22.084Z,47.88
2023-05-10T22:09:50.931Z,48.32
2023-05-10T22:12:19.906Z,48.29
2023-05-10T22:14:56.542Z,48.56
2023-05-10T22:17:36.295Z,48.78
2023-05-10T22:20:05.705Z,48.60
2023-05-10T22:22:34.373Z,48.61
2023-05-10T22:25:03.243Z,48.98
2023-05-10T22:27:32.496Z,48.73
2023-05-10T22:30:03.789Z,48.67
2023-05-10T22:32:34.515Z,48.86
2023-05-10T22:35:06.827Z,48.80
2023-05-10T22:37:35.856Z,48.56
2023-05-10T22:40:10.554Z,49.55
2023-05-10T22:42:40.255Z,49.16
2023-05-10T22:45:12.459Z,48.95
2023-05-10T22:47:40.989Z,49.33
2023-05-10T22:50:10.524Z,49.42
2023-05-10T22:52:40.140Z,49.46
2023-05-10T22:55:11.394Z,49.72
2023-05-10T22:57:40.288Z,49.26
2023-05-10T23:00:12.252Z,49.92
2023-05-10T23:02:41.234Z,49.65
2023-05-10T23:05:11.485Z,49.83
2023-05-10T23:07:40.510Z,50.39
2023-05-10T23:10:10.727Z,50.05
2023-05-10T23:12:39.818Z,50.89
2023-05-10T23:15:11.293Z,50.54
2023-05-10T23:17:40.156Z,51.55
2023-05-10T23:20:10.179Z,51.66
2023-05-10T23:22:40.308Z,52.70
2023-05-10T23:25:11.906Z,52.80
2023-05-10T23:27:40.725Z,52.41
2023-05-10T23:30:12.254Z,52.99
2023-05-10T23:32:41.348Z,52.87
2023-05-10T23:35:11.042Z,52.19
2023-05-10T23:37:41.183Z,52.91
2023-05-10T23:40:11.579Z,53.01
2023-05-10T23:42:43.524Z,53.96
2023-05-10T23:45:13.699Z,55.33
2023-05-10T23:47:42.395Z,53.51
2023-05-10T23:50:11.897Z,54.24
2023-05-10T23:52:40.911Z,54.07
2023-05-10T23:55:10.886Z,55.25
2023-05-10T23:57:43.085Z,56.09
